Time;durP1;ratioP1;P1;durP2;ratioP2;P2;SDS_P1;SDS_P2;PMS_P1;PMS_P2;Temp;Humidity;BMP_temperature;BMP_pressure;BME280_temperature;BME280_humidity;BME280_pressure;Samples;Min_cycle;Max_cycle;Signal;HPM_P1;HPM_P2
2021/09/19 00:00:19;;;;;;;12.00;10.90;;;;;;;13.76;100.00;101407.28;5260885;28;20021;-66
2021/09/19 00:02:50;;;;;;;12.82;11.25;;;;;;;13.75;100.00;101410.88;5263026;28;20028;-66
2021/09/19 00:05:22;;;;;;;12.15;10.48;;;;;;;13.66;100.00;101409.91;5260959;28;20029;-66
2021/09/19 00:07:53;;;;;;;12.38;10.63;;;;;;;13.62;100.00;101401.44;5261027;28;20052;-66
2021/09/19 00:10:25;;;;;;;12.70;11.40;;;;;;;13.67;100.00;101400.19;5261094;28;20070;-66
2021/09/19 00:12:56;;;;;;;12.23;11.02;;;;;;;13.61;100.00;101407.69;5262096;28;20442;-66
2021/09/19 00:15:27;;;;;;;12.02;10.75;;;;;;;13.52;100.00;101405.00;5263381;28;20017;-66
2021/09/19 00:17:59;;;;;;;12.27;11.07;;;;;;;13.54;100.00;101408.38;5262449;28;20020;-66
2021/09/19 00:20:30;;;;;;;11.65;10.52;;;;;;;13.54;100.00;101397.84;5260434;28;20067;-66
2021/09/19 00:23:02;;;;;;;14.60;11.25;;;;;;;13.46;100.00;101402.94;5260662;28;20016;-66
2021/09/19 00:25:33;;;;;;;11.60;10.18;;;;;;;13.46;100.00;101405.56;5263317;28;20033;-66
2021/09/19 00:28:06;;;;;;;12.55;11.35;;;;;;;13.42;100.00;101396.28;5262425;28;20023;-66
2021/09/19 00:30:37;;;;;;;11.00;9.98;;;;;;;13.42;100.00;101388.41;5262594;28;20387;-66
2021/09/19 00:33:09;;;;;;;11.45;10.30;;;;;;;13.51;100.00;101385.75;5261733;28;20028;-66
2021/09/19 00:35:40;;;;;;;11.13;10.13;;;;;;;13.46;100.00;101390.63;5261452;28;20027;-66
2021/09/19 00:38:12;;;;;;;11.63;10.43;;;;;;;13.39;100.00;101390.31;5264009;28;20044;-66
2021/09/19 00:40:43;;;;;;;11.57;10.10;;;;;;;13.38;100.00;101395.72;5267206;28;20032;-66
2021/09/19 00:43:14;;;;;;;11.02;9.85;;;;;;;13.37;100.00;101388.78;5263272;28;20020;-66
2021/09/19 00:45:46;;;;;;;14.38;10.40;;;;;;;13.36;100.00;101387.13;5264727;28;20016;-66
2021/09/19 00:48:17;;;;;;;10.88;9.77;;;;;;;13.36;100.00;101393.22;5263959;28;20036;-66
2021/09/19 00:50:48;;;;;;;10.90;9.80;;;;;;;13.35;100.00;101390.72;5263803;28;20289;-66
2021/09/19 00:53:21;;;;;;;10.50;9.50;;;;;;;13.35;100.00;101390.72;5268166;28;20035;-66
2021/09/19 00:55:56;;;;;;;10.95;9.85;;;;;;;13.31;100.00;101382.25;5264574;28;20122;-66
2021/09/19 00:58:28;;;;;;;10.65;9.65;;;;;;;13.29;100.00;101388.63;5267672;28;20031;-66
2021/09/19 01:01:01;;;;;;;11.30;10.13;;;;;;;13.23;100.00;101390.00;5265699;28;20045;-66
2021/09/19 01:03:32;;;;;;;10.77;9.63;;;;;;;13.25;100.00;101385.41;5265745;28;20033;-66
2021/09/19 01:06:04;;;;;;;10.38;9.38;;;;;;;13.21;100.00;101381.38;5264455;28;20653;-66
2021/09/19 01:08:35;;;;;;;10.95;9.85;;;;;;;13.19;100.00;101385.13;5264531;28;20053;-66
2021/09/19 01:11:07;;;;;;;11.35;10.15;;;;;;;13.23;100.00;101390.00;5264485;28;20443;-66
2021/09/19 01:13:41;;;;;;;11.75;10.43;;;;;;;13.27;100.00;101386.13;5265672;28;20051;-66
2021/09/19 01:16:16;;;;;;;10.35;9.27;;;;;;;13.19;100.00;101385.94;5266659;28;20029;-66
2021/09/19 01:18:48;;;;;;;10.88;9.77;;;;;;;13.14;100.00;101382.84;5266055;28;20039;-65
2021/09/19 01:21:19;;;;;;;10.63;9.52;;;;;;;13.18;100.00;101388.69;5268376;28;20366;-66
2021/09/19 01:24:04;;;;;;;11.23;9.73;;;;;;;13.21;100.00;101377.91;5267614;28;20062;-66
2021/09/19 01:26:36;;;;;;;11.52;10.32;;;;;;;13.10;100.00;101379.66;5267690;28;20111;-66
2021/09/19 01:29:07;;;;;;;11.05;9.95;;;;;;;13.10;100.00;101381.47;5263260;28;20483;-65
2021/09/19 01:31:39;;;;;;;10.52;9.45;;;;;;;13.08;100.00;101380.78;5264860;28;20032;-66
2021/09/19 01:34:10;;;;;;;10.48;9.43;;;;;;;13.10;100.00;101378.84;5266870;28;20329;-66
2021/09/19 01:36:41;;;;;;;11.43;10.05;;;;;;;13.06;100.00;101382.69;5265003;28;20113;-66
2021/09/19 01:39:13;;;;;;;10.60;9.60;;;;;;;12.97;100.00;101373.81;5264670;28;20090;-66
2021/09/19 01:41:44;;;;;;;13.02;10.88;;;;;;;13.03;100.00;101377.69;5264003;28;20554;-66
2021/09/19 01:44:16;;;;;;;10.60;9.60;;;;;;;12.96;100.00;101379.22;5265607;28;20025;-65
2021/09/19 01:46:47;;;;;;;10.23;9.23;;;;;;;13.03;100.00;101372.44;5266975;28;20035;-66
2021/09/19 01:49:18;;;;;;;10.98;9.65;;;;;;;12.93;100.00;101372.41;5264276;28;20474;-65
2021/09/19 01:51:50;;;;;;;10.77;9.68;;;;;;;12.94;100.00;101368.00;5266154;28;20085;-66
2021/09/19 01:54:21;;;;;;;11.02;9.52;;;;;;;12.89;100.00;101366.59;5262812;28;20063;-66
2021/09/19 01:56:52;;;;;;;10.95;9.07;;;;;;;12.91;100.00;101372.53;5264821;28;20032;-66
2021/09/19 01:59:23;;;;;;;10.90;9.73;;;;;;;12.94;100.00;101362.72;5262581;28;20028;-65
2021/09/19 02:01:55;;;;;;;10.75;9.65;;;;;;;12.89;100.00;101366.59;5261889;28;20036;-66
2021/09/19 02:04:27;;;;;;;10.07;9.15;;;;;;;12.83;100.00;101350.50;5264133;28;20033;-65
2021/09/19 02:06:58;;;;;;;9.70;8.75;;;;;;;12.85;100.00;101349.41;5263493;28;20501;-66
2021/09/19 02:09:29;;;;;;;10.68;9.57;;;;;;;12.79;100.00;101346.47;5266258;28;20172;-66
2021/09/19 02:12:00;;;;;;;11.30;10.30;;;;;;;12.75;100.00;101345.91;5266650;28;20051;-66
2021/09/19 02:14:32;;;;;;;10.27;9.27;;;;;;;12.72;100.00;101347.97;5265681;28;20444;-66
2021/09/19 02:17:03;;;;;;;10.05;9.10;;;;;;;12.74;100.00;101352.13;5264668;28;20142;-66
2021/09/19 02:19:35;;;;;;;10.57;9.18;;;;;;;12.74;100.00;101346.03;5264603;28;20025;-66
2021/09/19 02:22:11;;;;;;;10.43;9.32;;;;;;;12.76;100.00;101342.28;5265994;28;20051;-66
2021/09/19 02:24:42;;;;;;;10.77;9.70;;;;;;;12.69;100.00;101343.81;5265078;28;20033;-66
2021/09/19 02:27:14;;;;;;;10.70;9.57;;;;;;;12.72;100.00;101338.28;5265031;28;20039;-66
2021/09/19 02:29:45;;;;;;;10.82;9.48;;;;;;;12.70;100.00;101334.13;5266481;28;20067;-66
2021/09/19 02:32:16;;;;;;;10.88;9.80;;;;;;;12.62;100.00;101343.50;5265863;28;20029;-65
2021/09/19 02:34:48;;;;;;;11.02;9.90;;;;;;;12.63;100.00;101339.91;5266560;28;20070;-66
2021/09/19 02:37:19;;;;;;;10.23;9.13;;;;;;;12.67;100.00;101337.84;5266754;28;20032;-65
2021/09/19 02:39:50;;;;;;;10.40;9.40;;;;;;;12.59;100.00;101345.56;5267042;28;20038;-66
2021/09/19 02:42:22;;;;;;;12.23;9.23;;;;;;;12.58;100.00;101346.53;5262824;28;20029;-66
2021/09/19 02:44:53;;;;;;;10.82;9.73;;;;;;;12.53;100.00;101340.81;5265121;28;20508;-65
2021/09/19 02:47:24;;;;;;;10.63;9.52;;;;;;;12.52;100.00;101333.91;5264203;28;20025;-66
2021/09/19 02:49:55;;;;;;;10.15;9.15;;;;;;;12.51;100.00;101327.81;5263460;28;20029;-66
2021/09/19 02:52:27;;;;;;;10.45;9.25;;;;;;;12.52;100.00;101331.28;5263084;28;20038;-66
2021/09/19 02:54:58;;;;;;;10.13;9.13;;;;;;;12.51;100.00;101324.34;5262216;28;20036;-66
2021/09/19 02:57:30;;;;;;;10.45;9.38;;;;;;;12.51;100.00;101319.09;5264603;28;20273;-66
2021/09/19 03:00:03;;;;;;;11.23;9.48;;;;;;;12.46;100.00;101321.28;5261955;28;20083;-66
2021/09/19 03:02:34;;;;;;;11.60;9.63;;;;;;;12.41;100.00;101326.91;5263316;28;20039;-65
2021/09/19 03:05:07;;;;;;;10.88;9.65;;;;;;;12.44;100.00;101324.03;5264169;28;20021;-66
2021/09/19 03:07:38;;;;;;;10.93;9.85;;;;;;;12.41;100.00;101326.91;5262318;28;20033;-66
2021/09/19 03:10:11;;;;;;;11.48;10.30;;;;;;;12.40;100.00;101320.84;5263470;28;20029;-66
2021/09/19 03:12:42;;;;;;;11.60;9.30;;;;;;;12.36;100.00;101315.97;5263763;28;20644;-66
2021/09/19 03:15:14;;;;;;;10.35;9.35;;;;;;;12.34;100.00;101320.53;5262409;28;20066;-66
2021/09/19 03:17:45;;;;;;;10.60;9.60;;;;;;;12.32;100.00;101323.28;5264270;28;20032;-65
2021/09/19 03:20:17;;;;;;;10.43;9.32;;;;;;;12.30;100.00;101317.31;5266064;28;20073;-66
2021/09/19 03:22:48;;;;;;;10.20;9.20;;;;;;;12.32;100.00;101320.66;5262917;28;20020;-65
2021/09/19 03:25:19;;;;;;;9.73;8.73;;;;;;;12.31;100.00;101316.38;5263562;28;20039;-66
2021/09/19 03:27:51;;;;;;;9.95;9.05;;;;;;;12.27;100.00;101320.19;5263432;28;20097;-66
2021/09/19 03:30:22;;;;;;;10.00;9.00;;;;;;;12.23;100.00;101313.53;5261724;28;20029;-66
2021/09/19 03:32:54;;;;;;;10.13;9.10;;;;;;;12.22;100.00;101316.31;5264354;28;20063;-66
2021/09/19 03:35:25;;;;;;;10.00;9.00;;;;;;;12.26;100.00;101323.78;5261018;28;20052;-66
2021/09/19 03:37:56;;;;;;;10.93;9.68;;;;;;;12.18;100.00;101321.81;5262863;28;20029;-65
2021/09/19 03:40:28;;;;;;;10.57;8.95;;;;;;;12.17;100.00;101324.56;5265137;28;20052;-66
2021/09/19 03:42:59;;;;;;;9.27;8.38;;;;;;;12.22;100.00;101327.66;5263319;28;20110;-66
2021/09/19 03:45:30;;;;;;;10.32;8.80;;;;;;;12.15;100.00;101319.44;5262135;28;20021;-66
2021/09/19 03:48:07;;;;;;;10.27;9.18;;;;;;;12.22;100.00;101322.38;5263785;28;20481;-66
2021/09/19 03:50:39;;;;;;;10.18;9.02;;;;;;;12.12;100.00;101322.34;5263941;28;20089;-65
2021/09/19 03:53:10;;;;;;;10.70;9.10;;;;;;;12.15;100.00;101326.50;5262647;28;20486;-65
2021/09/19 03:55:41;;;;;;;10.07;8.85;;;;;;;12.17;100.00;101324.56;5263208;28;20063;-65
2021/09/19 03:58:12;;;;;;;9.90;8.90;;;;;;;12.10;100.00;101332.13;5262409;28;20024;-65
2021/09/19 04:00:44;;;;;;;9.63;8.70;;;;;;;12.10;100.00;101324.25;5259377;28;20035;-65
2021/09/19 04:03:15;;;;;;;8.93;8.05;;;;;;;12.09;100.00;101329.66;5262970;28;20055;-65
2021/09/19 04:05:46;;;;;;;9.95;8.93;;;;;;;12.06;100.00;101325.47;5263386;28;20478;-66
2021/09/19 04:08:18;;;;;;;9.43;8.45;;;;;;;12.12;100.00;101321.50;5262318;28;20044;-66
2021/09/19 04:10:49;;;;;;;9.55;8.38;;;;;;;12.04;100.00;101322.13;5261745;28;20024;-66
2021/09/19 04:13:20;;;;;;;10.07;9.05;;;;;;;12.05;100.00;101323.00;5261098;28;20043;-66
2021/09/19 04:15:51;;;;;;;9.35;8.45;;;;;;;12.07;100.00;101321.03;5262379;28;20039;-65
2021/09/19 04:18:23;;;;;;;10.07;9.07;;;;;;;12.01;100.00;101321.53;5261644;28;20039;-66
2021/09/19 04:20:54;;;;;;;10.63;8.73;;;;;;;12.04;100.00;101322.13;5262960;28;20036;-66
2021/09/19 04:23:25;;;;;;;9.43;8.52;;;;;;;12.02;100.00;101323.25;5262121;28;20025;-66
2021/09/19 04:25:57;;;;;;;9.35;8.45;;;;;;;12.06;100.00;101316.75;5259761;28;20548;-66
2021/09/19 04:28:28;;;;;;;10.52;9.18;;;;;;;11.96;100.00;101321.09;5262509;28;20067;-66
2021/09/19 04:30:59;;;;;;;10.82;9.40;;;;;;;11.95;100.00;101322.91;5263110;28;20039;-66
2021/09/19 04:33:31;;;;;;;10.50;9.05;;;;;;;11.92;100.00;101323.97;5262081;28;20055;-65
2021/09/19 04:36:02;;;;;;;10.13;9.07;;;;;;;11.87;100.00;101314.84;5262906;28;20020;-66
2021/09/19 04:38:33;;;;;;;9.77;8.77;;;;;;;11.88;100.00;101327.00;5263636;28;20367;-65
2021/09/19 04:41:05;;;;;;;10.57;8.70;;;;;;;11.92;100.00;101315.28;5262077;28;20028;-66
2021/09/19 04:43:36;;;;;;;10.75;9.40;;;;;;;11.92;100.00;101323.16;5262318;28;20063;-66
2021/09/19 04:46:07;;;;;;;10.35;8.40;;;;;;;11.86;100.00;101308.75;5262630;28;20171;-66
2021/09/19 04:48:38;;;;;;;10.23;9.20;;;;;;;11.86;100.00;101305.31;5261486;28;20041;-65
2021/09/19 04:51:10;;;;;;;10.73;9.02;;;;;;;11.85;100.00;101309.69;5260001;28;20985;-66
2021/09/19 04:53:41;;;;;;;12.48;8.30;;;;;;;11.83;100.00;101326.53;5260789;28;20510;-66
2021/09/19 04:56:13;;;;;;;10.32;8.70;;;;;;;11.82;100.00;101327.47;5262748;28;20470;-66
2021/09/19 04:58:45;;;;;;;9.87;8.87;;;;;;;11.80;100.00;101319.72;5261675;28;20429;-65
2021/09/19 05:01:16;;;;;;;10.23;8.82;;;;;;;11.78;100.00;101324.28;5262009;28;20028;-66
2021/09/19 05:03:47;;;;;;;9.75;8.75;;;;;;;11.80;100.00;101319.72;5262085;28;20351;-66
2021/09/19 05:06:18;;;;;;;9.30;8.40;;;;;;;11.81;100.00;101325.78;5263206;28;20016;-65
2021/09/19 05:08:50;;;;;;;10.43;9.43;;;;;;;11.76;100.00;101318.31;5261339;28;20060;-65
2021/09/19 05:11:21;;;;;;;10.05;9.05;;;;;;;11.74;100.00;101324.63;5261105;28;20091;-66
2021/09/19 05:13:52;;;;;;;10.13;9.13;;;;;;;11.73;100.00;101318.56;5261492;28;20064;-66
2021/09/19 05:16:23;;;;;;;10.23;9.23;;;;;;;11.71;100.00;101317.03;5261971;28;20182;-66
2021/09/19 05:18:56;;;;;;;9.45;8.55;;;;;;;11.69;100.00;101317.13;5261335;28;20021;-65
2021/09/19 05:21:29;;;;;;;9.80;8.80;;;;;;;11.72;100.00;101318.69;5262854;28;20036;-66
2021/09/19 05:24:01;;;;;;;10.52;8.82;;;;;;;11.72;100.00;101313.44;5263935;28;20021;-66
2021/09/19 05:26:32;;;;;;;11.27;9.02;;;;;;;11.69;100.00;101320.59;5266131;28;20040;-66
2021/09/19 05:29:03;;;;;;;10.93;8.57;;;;;;;11.72;100.00;101318.69;5263516;28;20048;-65
2021/09/19 05:31:34;;;;;;;9.38;8.45;;;;;;;11.73;100.00;101317.72;5263468;28;20028;-66
2021/09/19 05:34:06;;;;;;;10.52;9.43;;;;;;;11.68;100.00;101321.56;5266087;28;20371;-66
2021/09/19 05:36:37;;;;;;;10.90;8.23;;;;;;;11.69;100.00;101320.59;5265144;28;20037;-65
2021/09/19 05:39:08;;;;;;;9.68;8.77;;;;;;;11.70;100.00;101318.81;5263634;28;20025;-67
2021/09/19 05:41:40;;;;;;;10.50;9.50;;;;;;;11.69;100.00;101322.38;5264652;28;20052;-65
2021/09/19 05:44:11;;;;;;;11.90;9.88;;;;;;;11.72;100.00;101327.41;5264145;28;20039;-65
2021/09/19 05:46:42;;;;;;;10.70;9.35;;;;;;;11.71;100.00;101328.38;5265615;28;20055;-66
2021/09/19 05:49:14;;;;;;;10.27;8.98;;;;;;;11.73;100.00;101322.97;5264698;28;20520;-66
2021/09/19 05:51:45;;;;;;;10.95;9.32;;;;;;;11.70;100.00;101324.06;5264901;28;20116;-66
2021/09/19 05:54:16;;;;;;;10.73;8.95;;;;;;;11.73;100.00;101329.06;5263760;28;20418;-66
2021/09/19 05:56:47;;;;;;;10.68;8.77;;;;;;;11.75;100.00;101340.28;5266379;28;20459;-66
2021/09/19 05:59:19;;;;;;;9.60;8.63;;;;;;;11.78;100.00;101331.28;5264382;28;20479;-66
2021/09/19 06:01:51;;;;;;;10.63;9.52;;;;;;;11.77;100.00;101348.00;5263862;28;20032;-67
2021/09/19 06:04:23;;;;;;;11.43;8.90;;;;;;;11.79;100.00;101338.22;5266061;28;20617;-64
2021/09/19 06:06:54;;;;;;;10.43;9.07;;;;;;;11.80;100.00;101345.97;5266001;28;20127;-66
2021/09/19 06:09:25;;;;;;;12.88;9.70;;;;;;;11.81;100.00;101347.63;5264643;28;20052;-66
2021/09/19 06:11:57;;;;;;;10.00;9.10;;;;;;;11.83;100.00;101343.13;5263096;28;20063;-66
2021/09/19 06:14:28;;;;;;;10.95;9.52;;;;;;;11.87;100.00;101341.09;5263923;28;20032;-68
2021/09/19 06:16:59;;;;;;;10.80;9.70;;;;;;;11.88;100.00;101342.75;5266430;28;20031;-65
2021/09/19 06:19:31;;;;;;;10.82;9.57;;;;;;;11.95;100.00;101337.84;5265492;28;20538;-65
2021/09/19 06:22:02;;;;;;;9.93;8.93;;;;;;;11.95;100.00;101338.66;5267739;28;20036;-64
2021/09/19 06:24:34;;;;;;;10.02;9.02;;;;;;;11.98;100.00;101340.22;5266249;28;20033;-66
2021/09/19 06:27:05;;;;;;;12.15;9.68;;;;;;;11.99;100.00;101337.44;5266329;28;20648;-66
2021/09/19 06:29:41;;;;;;;11.13;9.23;;;;;;;12.06;100.00;101338.59;5264736;28;20098;-65
2021/09/19 06:32:12;;;;;;;11.70;9.60;;;;;;;12.08;100.00;101339.28;5265793;28;20032;-66
2021/09/19 06:34:44;;;;;;;10.77;8.63;;;;;;;12.13;100.00;101339.75;5266064;28;20032;-67
2021/09/19 06:37:15;;;;;;;11.50;9.30;;;;;;;12.20;100.00;101349.75;5264220;28;20059;-67
2021/09/19 06:39:46;;;;;;;13.35;9.90;;;;;;;12.21;100.00;101344.38;5265271;28;20035;-66
2021/09/19 06:42:20;;;;;;;12.10;9.48;;;;;;;12.27;100.00;101348.28;5266034;28;20064;-65
2021/09/19 06:44:51;;;;;;;11.50;9.00;;;;;;;12.32;100.00;101346.09;5265962;28;20111;-66
2021/09/19 06:47:22;;;;;;;12.60;9.25;;;;;;;12.35;100.00;101345.81;5264856;28;20520;-65
2021/09/19 06:49:54;;;;;;;11.52;9.45;;;;;;;12.43;100.00;101355.72;5263980;28;20379;-67
2021/09/19 06:52:25;;;;;;;11.48;9.05;;;;;;;12.47;100.00;101362.38;5265546;28;20028;-66
2021/09/19 06:54:56;;;;;;;12.00;9.80;;;;;;;12.55;100.00;101357.31;5265723;28;20053;-66
2021/09/19 06:57:28;;;;;;;10.48;9.32;;;;;;;12.60;100.00;101355.94;5266938;28;20029;-66
2021/09/19 07:00:00;;;;;;;11.13;9.70;;;;;;;12.69;100.00;101366.63;5266180;28;20123;-66
2021/09/19 07:02:31;;;;;;;11.20;9.48;;;;;;;12.75;100.00;101350.34;5262547;28;20753;-66
2021/09/19 07:05:03;;;;;;;11.13;9.52;;;;;;;12.83;100.00;101355.75;5263897;28;20540;-67
2021/09/19 07:07:35;;;;;;;12.20;9.53;;;;;;;12.91;100.00;101354.13;5266359;28;20063;-66
2021/09/19 07:10:06;;;;;;;11.75;9.45;;;;;;;12.99;100.00;101355.25;5266631;28;20112;-66
2021/09/19 07:12:38;;;;;;;12.35;10.00;;;;;;;13.03;100.00;101362.78;5265046;28;20569;-66
2021/09/19 07:15:10;;;;;;;12.63;9.05;;;;;;;13.11;100.00;101356.84;5264015;28;20029;-65
2021/09/19 07:17:41;;;;;;;11.05;9.30;;;;;;;13.19;100.00;101358.81;5265024;28;20027;-65
2021/09/19 07:20:12;;;;;;;13.27;9.07;;;;;;;13.25;100.00;101366.16;5266313;28;20031;-66
2021/09/19 07:22:46;;;;;;;9.75;8.10;;;;;;;13.37;100.00;101357.19;5266636;28;20371;-65
2021/09/19 07:25:17;;;;;;;12.20;9.07;;;;;;;13.41;100.00;101360.38;5265709;28;20029;-66
2021/09/19 07:27:49;;;;;;;9.70;8.43;;;;;;;13.50;100.00;101354.31;5266575;28;20088;-66
2021/09/19 07:30:20;;;;;;;8.40;7.57;;;;;;;13.59;100.00;101362.22;5265430;28;20032;-68
2021/09/19 07:32:52;;;;;;;10.85;8.00;;;;;;;13.61;100.00;101360.28;5265419;28;20026;-66
2021/09/19 07:35:23;;;;;;;9.60;8.10;;;;;;;13.69;100.00;101358.78;5263223;28;20037;-67
2021/09/19 07:37:55;;;;;;;9.27;7.22;;;;;;;13.80;100.00;101367.38;5263501;28;20032;-67
2021/09/19 07:40:26;;;;;;;10.95;8.45;;;;;;;13.88;100.00;101374.56;5265807;28;20090;-68
2021/09/19 07:42:59;;;;;;;8.68;7.72;;;;;;;14.00;100.00;101372.63;5264301;28;20386;-67
2021/09/19 07:45:31;;;;;;;8.15;7.30;;;;;;;14.10;100.00;101378.75;5264612;28;20394;-67
2021/09/19 07:48:08;;;;;;;9.75;7.43;;;;;;;14.18;100.00;101375.41;5262878;28;20029;-67
2021/09/19 07:50:40;;;;;;;7.82;6.55;;;;;;;14.31;100.00;101386.47;5263915;28;20503;-68
2021/09/19 07:53:12;;;;;;;7.70;6.90;;;;;;;14.36;100.00;101382.44;5266272;28;20028;-67
2021/09/19 07:55:43;;;;;;;7.90;6.88;;;;;;;14.50;100.00;101390.91;5262643;28;20025;-67
2021/09/19 07:58:15;;;;;;;10.70;6.97;;;;;;;14.59;100.00;101397.97;5263813;28;20056;-67
2021/09/19 08:00:46;;;;;;;7.40;6.32;;;;;;;14.65;100.00;101397.38;5261251;28;20032;-67
2021/09/19 08:03:17;;;;;;;7.38;6.10;;;;;;;14.73;100.00;101394.03;5258667;28;20035;-67
2021/09/19 08:05:49;;;;;;;7.55;5.65;;;;;;;14.82;100.00;101395.81;5262263;28;21037;-67
2021/09/19 08:08:20;;;;;;;6.80;5.88;;;;;;;14.91;100.00;101397.59;5260537;28;20557;-66
2021/09/19 08:10:51;;;;;;;6.80;5.72;;;;;;;15.01;100.00;101395.75;5263811;28;20401;-67
2021/09/19 08:13:23;;;;;;;6.13;5.00;;;;;;;15.09;100.00;101400.28;5260909;28;20484;-66
2021/09/19 08:15:54;;;;;;;9.25;5.80;;;;;;;15.15;100.00;101399.69;5265068;28;20032;-67
2021/09/19 08:18:25;;;;;;;5.57;4.90;;;;;;;15.22;100.00;101392.84;5255645;28;20028;-67
2021/09/19 08:20:57;;;;;;;6.10;4.75;;;;;;;15.29;100.00;101395.75;5264642;28;20028;-67
2021/09/19 08:23:28;;;;;;;5.82;5.07;;;;;;;15.35;100.00;101395.16;5263268;28;20043;-65
2021/09/19 08:26:00;;;;;;;5.80;4.95;;;;;;;15.33;100.00;101415.59;5261890;28;20086;-68
2021/09/19 08:28:31;;;;;;;5.63;4.78;;;;;;;15.47;100.00;101417.75;5262508;28;20037;-66
2021/09/19 08:31:02;;;;;;;6.65;4.78;;;;;;;15.54;100.00;101407.41;5259064;28;20032;-67
2021/09/19 08:33:33;;;;;;;5.90;4.40;;;;;;;15.54;100.00;101417.97;5261922;28;20037;-66
2021/09/19 08:36:05;;;;;;;6.45;5.00;;;;;;;15.50;100.00;101409.53;5263783;28;20027;-66
2021/09/19 08:38:36;;;;;;;7.32;4.57;;;;;;;15.55;100.00;101404.63;5262926;28;20078;-68
2021/09/19 08:41:08;;;;;;;5.97;4.88;;;;;;;15.66;100.00;101413.34;5264401;28;20070;-67
2021/09/19 08:43:39;;;;;;;7.40;4.80;;;;;;;15.74;100.00;101410.78;5263828;28;20025;-68
2021/09/19 08:46:18;;;;;;;6.95;4.60;;;;;;;15.81;100.00;101414.50;5264876;28;20021;-66
2021/09/19 08:48:50;;;;;;;5.53;4.70;;;;;;;15.75;100.00;101415.09;5265270;28;20123;-66
2021/09/19 08:51:22;;;;;;;5.17;4.67;;;;;;;15.80;100.00;101407.56;5262529;28;20082;-67
2021/09/19 08:53:53;;;;;;;6.03;4.55;;;;;;;15.98;100.00;101404.91;5263719;28;20274;-67
2021/09/19 08:56:26;;;;;;;8.25;5.05;;;;;;;16.04;100.00;101406.94;5261808;28;20060;-66
2021/09/19 08:58:58;;;;;;;5.95;4.40;;;;;;;16.03;100.00;101408.75;5264662;28;20059;-65
2021/09/19 09:01:29;;;;;;;6.47;4.63;;;;;;;16.11;100.00;101402.72;5267307;28;20057;-69
2021/09/19 09:04:03;;;;;;;5.70;4.88;;;;;;;16.40;100.00;101412.16;5268257;28;20078;-69
2021/09/19 09:06:38;;;;;;;7.57;4.18;;;;;;;16.72;100.00;101407.09;5268548;28;20037;-68
2021/09/19 09:09:15;;;;;;;5.20;3.92;;;;;;;16.87;100.00;101417.97;5267033;28;20080;-68
2021/09/19 09:12:18;;;;;;;5.15;3.40;;;;;;;17.18;100.00;101418.28;5265301;28;20478;-68
2021/09/19 09:14:54;;;;;;;;;;;;;;;17.44;100.00;101420.88;5258436;28;20418;-68
2021/09/19 09:17:27;;;;;;;5.32;3.90;;;;;;;17.54;100.00;101423.38;5266794;28;19959;-67
2021/09/19 09:20:00;;;;;;;5.97;4.20;;;;;;;17.62;100.00;101422.56;5263341;28;20025;-69
2021/09/19 09:22:34;;;;;;;5.68;3.63;;;;;;;17.75;100.00;101431.72;5265049;28;20035;-68
2021/09/19 09:25:13;;;;;;;5.05;3.58;;;;;;;17.84;100.00;101422.00;5257541;28;20027;-67
2021/09/19 09:27:48;;;;;;;5.32;4.03;;;;;;;17.82;100.00;101420.50;5259597;28;20397;-69
2021/09/19 09:30:20;;;;;;;5.25;3.80;;;;;;;18.03;100.00;101404.91;5264529;28;20031;-69
2021/09/19 09:33:03;;;;;;;4.97;3.55;;;;;;;18.28;100.00;101415.53;5264026;28;20089;-67
2021/09/19 09:35:38;;;;;;;4.00;3.47;;;;;;;18.29;100.00;101415.34;5260819;28;20029;-69
2021/09/19 09:38:20;;;;;;;6.65;3.10;;;;;;;18.45;100.00;101415.38;5265213;28;20031;-67
2021/09/19 09:40:56;;;;;;;5.07;3.10;;;;;;;18.42;100.00;101417.53;5264978;28;20028;-69
2021/09/19 09:43:29;;;;;;;4.45;2.83;;;;;;;18.32;100.00;101419.50;5264475;28;20123;-69
2021/09/19 09:46:09;;;;;;;4.40;3.42;;;;;;;18.42;100.00;101412.22;5264935;28;20021;-69
2021/09/19 09:48:41;;;;;;;3.88;3.22;;;;;;;18.27;100.00;101414.72;5265728;28;20037;-68
2021/09/19 09:51:23;;;;;;;5.05;3.55;;;;;;;18.38;100.00;101410.91;5261341;28;20056;-68
2021/09/19 09:53:59;;;;;;;4.40;3.67;;;;;;;18.29;100.00;101411.88;5262541;28;20163;-67
2021/09/19 09:56:31;;;;;;;8.13;3.90;;;;;;;18.23;100.00;101411.56;5261853;28;20041;-68
2021/09/19 09:59:02;;;;;;;4.32;3.35;;;;;;;18.42;100.00;101410.38;5264184;28;20077;-68
2021/09/19 10:01:34;;;;;;;5.30;3.83;;;;;;;18.52;100.00;101412.03;5262828;28;20032;-69
2021/09/19 10:04:06;;;;;;;4.25;3.33;;;;;;;18.62;100.00;101400.22;5263702;28;20103;-67
2021/09/19 10:06:37;;;;;;;4.77;3.97;;;;;;;18.75;100.00;101402.38;5260375;28;20371;-66
2021/09/19 10:09:08;;;;;;;4.40;3.47;;;;;;;18.77;100.00;101408.34;5255583;28;20359;-69
2021/09/19 10:11:40;;;;;;;6.60;3.70;;;;;;;18.84;100.00;101414.66;5265858;28;20036;-67
2021/09/19 10:14:11;;;;;;;3.57;3.10;;;;;;;18.84;100.00;101411.16;5263924;28;20032;-69
2021/09/19 10:16:42;;;;;;;4.97;3.13;;;;;;;19.14;100.00;101414.88;5260795;28;20470;-69
2021/09/19 10:19:19;;;;;;;4.30;3.53;;;;;;;19.23;100.00;101408.53;5265334;28;20107;-68
2021/09/19 10:21:51;;;;;;;4.85;3.30;;;;;;;19.28;100.00;101415.97;5262656;28;20052;-67
2021/09/19 10:24:22;;;;;;;4.70;3.22;;;;;;;19.34;100.00;101410.78;5260101;28;20028;-68
2021/09/19 10:26:56;;;;;;;4.47;3.50;;;;;;;19.50;100.00;101419.69;5259078;28;20488;-68
2021/09/19 10:29:28;;;;;;;3.25;2.95;;;;;;;19.68;100.00;101413.13;5272154;28;20081;-68
2021/09/19 10:32:00;;;;;;;3.97;3.27;;;;;;;19.87;100.00;101413.66;5262242;28;20025;-67
2021/09/19 10:34:32;;;;;;;3.50;3.05;;;;;;;20.00;100.00;101413.91;5262715;28;20036;-68
2021/09/19 10:37:04;;;;;;;3.47;3.13;;;;;;;20.03;100.00;101412.72;5262579;28;20091;-66
2021/09/19 10:39:41;;;;;;;4.30;3.53;;;;;;;20.07;100.00;101408.69;5264584;28;20028;-68
2021/09/19 10:42:28;;;;;;;3.80;2.95;;;;;;;20.17;100.00;101406.63;5259486;28;20029;-68
2021/09/19 10:45:10;;;;;;;3.85;3.22;;;;;;;20.26;100.00;101405.53;5261647;28;20028;-66
2021/09/19 10:47:53;;;;;;;5.10;3.13;;;;;;;20.32;100.00;101407.47;5265769;28;20143;-68
2021/09/19 10:50:29;;;;;;;4.32;3.13;;;;;;;20.29;100.00;101405.16;5260487;28;20032;-68
2021/09/19 10:53:03;;;;;;;4.13;3.25;;;;;;;20.29;100.00;101407.00;5262932;28;20028;-68
2021/09/19 10:56:14;;;;;;;3.83;3.00;;;;;;;20.38;100.00;101404.09;5260698;28;20067;-69
2021/09/19 10:58:47;;;;;;;5.07;2.83;;;;;;;20.50;100.00;101407.19;5236722;28;20261;-67
2021/09/19 11:01:27;;;;;;;3.13;2.58;;;;;;;20.69;100.00;101400.50;5238038;28;20672;-67
2021/09/19 11:03:58;;;;;;;3.63;2.80;;;;;;;20.59;100.00;101403.41;5249725;28;20071;-68
2021/09/19 11:06:41;;;;;;;5.37;2.93;;;;;;;20.62;100.00;101407.56;5254512;28;20108;-69
2021/09/19 11:09:28;;;;;;;5.30;2.55;;;;;;;20.76;100.00;101408.56;5261598;28;20112;-69
2021/09/19 11:12:18;;;;;;;3.58;2.70;;;;;;;20.73;100.00;101403.63;5262380;28;20060;-68
2021/09/19 11:15:02;;;;;;;4.18;2.60;;;;;;;20.75;100.00;101389.09;5260041;28;20065;-68
2021/09/19 11:17:34;;;;;;;3.05;2.40;;;;;;;20.89;100.00;101408.75;5258961;28;20090;-68
2021/09/19 11:20:09;;;;;;;3.72;2.60;;;;;;;20.81;100.00;101408.84;5261312;28;20049;-68
2021/09/19 11:22:44;;;;;;;5.72;2.80;;;;;;;20.83;100.00;101406.81;5262511;28;20033;-68
2021/09/19 11:25:17;;;;;;;3.53;2.40;;;;;;;21.03;100.00;101399.13;5259498;28;20026;-68
2021/09/19 11:27:51;;;;;;;3.00;2.10;;;;;;;21.06;100.00;101402.25;5264266;28;20116;-68
2021/09/19 11:30:28;;;;;;;2.75;1.85;;;;;;;20.96;100.00;101407.00;5262517;28;20113;-68
2021/09/19 11:33:00;;;;;;;2.28;1.80;;;;;;;21.02;100.00;101392.94;5262278;28;20509;-69
2021/09/19 11:35:31;;;;;;;2.92;1.67;;;;;;;21.09;100.00;101399.19;5262393;28;20107;-69